Time;durP1;ratioP1;P1;durP2;ratioP2;P2;SDS_P1;SDS_P2;PMS_P1;PMS_P2;Temp;Humidity;BMP_temperature;BMP_pressure;BME280_temperature;BME280_humidity;BME280_pressure;Samples;Min_cycle;Max_cycle;Signal;HPM_P1;HPM_P2
2022/12/31 00:00:37;;;;;;;25.20;14.90;;;;;;;9.78;57.39;101369.23;107312;1291;21949;-61
2022/12/31 00:03:04;;;;;;;19.30;14.40;;;;;;;9.76;57.32;101366.93;107342;1290;21957;-60
2022/12/31 00:05:31;;;;;;;23.80;15.10;;;;;;;9.73;57.24;101372.16;107249;1290;21944;-64
2022/12/31 00:07:57;;;;;;;22.50;15.70;;;;;;;9.66;56.92;101372.30;107210;1291;21930;-60
2022/12/31 00:10:23;;;;;;;23.90;15.90;;;;;;;9.59;56.79;101369.60;108431;1290;21956;-60
2022/12/31 00:12:50;;;;;;;23.00;16.00;;;;;;;9.52;56.89;101374.64;107436;1290;21956;-63
2022/12/31 00:15:16;;;;;;;26.40;16.30;;;;;;;9.45;56.93;101380.02;107328;1288;21997;-63
2022/12/31 00:17:42;;;;;;;26.20;16.30;;;;;;;9.40;56.91;101386.28;107411;1290;21951;-61
2022/12/31 00:20:08;;;;;;;25.30;15.60;;;;;;;9.32;56.96;101389.54;107415;1285;21955;-61
2022/12/31 00:22:34;;;;;;;23.60;15.80;;;;;;;9.26;56.90;101394.05;107397;1290;21967;-61
2022/12/31 00:24:59;;;;;;;23.60;16.40;;;;;;;9.17;56.92;101399.56;107317;1290;22004;-63
2022/12/31 00:27:29;;;;;;;28.00;17.90;;;;;;;9.13;56.93;101400.91;107266;1290;21948;-63
2022/12/31 00:29:55;;;;;;;26.10;18.20;;;;;;;9.10;57.31;101403.34;107399;1290;23080;-62
2022/12/31 00:32:21;;;;;;;28.20;18.50;;;;;;;9.18;57.53;101402.73;107335;1290;21946;-61
2022/12/31 00:34:46;;;;;;;29.70;19.40;;;;;;;9.19;57.86;101407.98;107310;1288;21995;-61
2022/12/31 00:37:12;;;;;;;28.80;18.30;;;;;;;9.25;57.82;101404.71;107440;1290;22005;-63
2022/12/31 00:39:38;;;;;;;27.40;17.60;;;;;;;9.30;57.84;101402.47;107425;1287;21948;-61
2022/12/31 00:42:08;;;;;;;27.40;18.30;;;;;;;9.30;57.58;101406.52;107265;1290;22032;-63
2022/12/31 00:44:34;;;;;;;25.50;17.40;;;;;;;9.27;57.52;101408.94;107336;1290;21971;-63
2022/12/31 00:47:00;;;;;;;28.60;19.40;;;;;;;9.24;57.30;101414.00;107380;1290;22409;-64
2022/12/31 00:49:29;;;;;;;27.50;18.20;;;;;;;9.19;57.26;101418.33;107286;1288;22028;-63
2022/12/31 00:51:54;;;;;;;32.00;19.70;;;;;;;9.17;57.43;101421.27;107296;1289;22004;-62
2022/12/31 00:54:21;;;;;;;27.20;17.50;;;;;;;9.23;57.45;101421.33;107387;1290;21947;-61
2022/12/31 00:56:51;;;;;;;28.10;18.30;;;;;;;9.22;57.31;101423.95;107294;1290;21938;-63
2022/12/31 00:59:17;;;;;;;29.00;19.30;;;;;;;9.20;57.16;101432.87;107302;1290;21925;-62
2022/12/31 01:01:42;;;;;;;33.00;20.20;;;;;;;9.17;57.17;101433.88;107372;1288;21948;-61
2022/12/31 01:04:13;;;;;;;28.10;18.40;;;;;;;9.13;57.23;101430.16;107385;1288;21917;-61
2022/12/31 01:06:39;;;;;;;31.60;20.10;;;;;;;9.11;57.34;101426.11;107274;1292;21955;-63
2022/12/31 01:09:07;;;;;;;35.10;20.90;;;;;;;9.10;57.32;101428.71;107267;1290;21951;-60
2022/12/31 01:11:33;;;;;;;29.90;18.80;;;;;;;9.10;57.40;101426.80;107227;1290;21955;-63
2022/12/31 01:14:08;;;;;;;28.30;19.00;;;;;;;9.12;57.57;101423.14;107269;1282;21959;-60
2022/12/31 01:16:44;;;;;;;30.10;19.10;;;;;;;9.14;57.52;101425.96;107285;1291;21953;-62
2022/12/31 01:19:16;;;;;;;33.20;20.50;;;;;;;9.13;57.52;101427.88;107286;1291;21950;-63
2022/12/31 01:21:43;;;;;;;30.20;19.90;;;;;;;9.14;57.50;101429.81;107341;1290;21947;-62
2022/12/31 01:24:09;;;;;;;29.80;19.90;;;;;;;9.14;57.43;101428.77;107297;1292;21952;-63
2022/12/31 01:26:35;;;;;;;35.60;21.60;;;;;;;9.11;57.46;101422.09;107373;1291;22166;-63
2022/12/31 01:29:01;;;;;;;31.60;20.10;;;;;;;9.05;57.60;101423.77;107283;1288;21950;-61
2022/12/31 01:31:27;;;;;;;28.60;19.90;;;;;;;8.97;57.90;101421.92;107374;1287;21970;-63
2022/12/31 01:33:52;;;;;;;29.60;20.60;;;;;;;8.95;58.19;101422.62;107395;1290;21951;-61
2022/12/31 01:36:21;;;;;;;30.10;19.90;;;;;;;8.93;58.22;101426.80;107341;1290;21945;-60
2022/12/31 01:38:47;;;;;;;31.10;20.20;;;;;;;8.93;58.17;101423.11;107433;1290;21936;-60
2022/12/31 01:41:16;;;;;;;37.60;22.00;;;;;;;8.90;58.06;101420.11;107381;1290;21957;-60
2022/12/31 01:43:50;;;;;;;36.40;20.90;;;;;;;8.87;58.07;101416.39;107427;1286;21956;-63
2022/12/31 01:46:20;;;;;;;31.50;20.60;;;;;;;8.87;58.19;101412.36;107279;1287;21943;-63
2022/12/31 01:48:48;;;;;;;33.20;20.90;;;;;;;8.62;58.83;101408.77;107440;1290;21965;-63
2022/12/31 01:51:14;;;;;;;31.70;21.30;;;;;;;8.57;59.19;101413.25;107459;1291;21945;-62
2022/12/31 01:53:40;;;;;;;33.30;20.80;;;;;;;8.62;59.10;101413.13;107436;1290;21960;-63
2022/12/31 01:56:06;;;;;;;29.10;19.10;;;;;;;8.80;58.53;101408.61;107103;1286;21958;-61
2022/12/31 01:58:43;;;;;;;29.50;19.00;;;;;;;8.81;58.33;101409.86;107274;1290;21947;-63
2022/12/31 02:01:09;;;;;;;32.30;20.70;;;;;;;8.83;58.27;101410.92;106565;1290;1003137;-61
2022/12/31 02:03:35;;;;;;;31.40;18.90;;;;;;;8.83;58.30;101418.80;107284;1290;21958;-63
2022/12/31 02:06:06;;;;;;;29.70;18.50;;;;;;;8.83;58.21;101427.90;107075;1293;21956;-60
2022/12/31 02:08:32;;;;;;;25.80;17.50;;;;;;;8.86;57.90;101434.58;107251;1290;22746;-63
2022/12/31 02:10:57;;;;;;;28.90;19.30;;;;;;;8.84;57.75;101439.46;107300;1290;21946;-63
2022/12/31 02:13:23;;;;;;;29.10;19.30;;;;;;;8.76;57.65;101449.70;107337;1290;21946;-62
2022/12/31 02:16:05;;;;;;;28.90;18.80;;;;;;;8.68;57.79;101455.53;107221;1288;21959;-60
2022/12/31 02:18:50;;;;;;;29.30;18.10;;;;;;;8.63;57.95;101458.63;107280;1291;21965;-60
2022/12/31 02:21:24;;;;;;;27.20;18.30;;;;;;;8.62;58.07;101458.44;107320;1287;21955;-63
2022/12/31 02:23:53;;;;;;;29.70;18.70;;;;;;;8.64;57.98;101457.05;107294;1287;21960;-62
2022/12/31 02:26:31;;;;;;;29.40;18.60;;;;;;;8.63;58.15;101457.06;107407;1288;21958;-61
2022/12/31 02:29:25;;;;;;;30.00;19.70;;;;;;;8.62;58.11;101460.36;107360;1291;23080;-61
2022/12/31 02:31:56;;;;;;;33.70;19.10;;;;;;;8.58;58.05;101460.84;106559;1290;1002340;-62
2022/12/31 02:34:34;;;;;;;31.80;19.60;;;;;;;8.56;57.99;101470.61;107255;1293;22069;-60
2022/12/31 02:37:00;;;;;;;25.40;17.50;;;;;;;8.56;58.12;101474.98;107309;1290;22528;-61
2022/12/31 02:39:27;;;;;;;24.70;16.60;;;;;;;8.55;58.05;101479.00;107344;1291;21947;-61
2022/12/31 02:41:53;;;;;;;28.60;17.50;;;;;;;8.53;58.28;101477.76;107322;1292;21948;-60
2022/12/31 02:44:23;;;;;;;26.60;16.60;;;;;;;8.54;58.23;101473.21;107185;1287;21962;-60
2022/12/31 02:47:04;;;;;;;27.80;16.80;;;;;;;8.53;58.02;101469.35;107390;1290;21947;-60
2022/12/31 02:49:48;;;;;;;25.20;15.60;;;;;;;8.48;58.11;101471.55;107240;1288;21955;-61
2022/12/31 02:52:24;;;;;;;25.40;16.80;;;;;;;8.49;58.27;101480.13;107172;1293;21960;-60
2022/12/31 02:54:58;;;;;;;27.60;17.50;;;;;;;8.50;58.41;101484.70;107200;1292;22067;-62
2022/12/31 02:57:36;;;;;;;25.50;16.70;;;;;;;8.51;58.47;101489.27;107220;1293;22020;-63
2022/12/31 03:02:49;;;;;;;28.80;17.50;;;;;;;8.53;58.41;101491.38;107166;1291;21955;-60
2022/12/31 03:05:16;;;;;;;27.80;17.40;;;;;;;8.46;58.76;101498.09;106913;1293;21937;-61
2022/12/31 03:07:42;;;;;;;26.50;15.90;;;;;;;8.55;58.81;101498.91;107057;1288;21989;-61
2022/12/31 03:10:09;;;;;;;24.30;15.90;;;;;;;8.61;58.52;101495.52;107136;1291;21957;-61
2022/12/31 03:12:47;;;;;;;26.60;16.10;;;;;;;8.61;58.29;101499.02;107158;1290;21955;-61
2022/12/31 03:15:20;;;;;;;24.90;16.90;;;;;;;8.60;58.20;101491.66;107094;1291;21961;-62
2022/12/31 03:17:57;;;;;;;31.10;17.80;;;;;;;8.56;58.21;101492.31;106516;1290;1003225;-62
2022/12/31 03:23:19;;;;;;;25.20;16.40;;;;;;;8.55;58.15;101501.73;107326;1289;21959;-61
2022/12/31 03:25:45;;;;;;;25.00;15.90;;;;;;;8.49;57.65;101501.30;107429;1290;21986;-62
2022/12/31 03:28:13;;;;;;;26.10;16.50;;;;;;;8.45;57.84;101497.70;107355;1290;21947;-62
2022/12/31 03:30:40;;;;;;;23.70;15.70;;;;;;;8.41;57.87;101505.87;107330;1291;21962;-62
2022/12/31 03:33:06;;;;;;;36.50;19.40;;;;;;;8.40;57.98;101505.33;107361;1291;21947;-63
2022/12/31 03:35:33;;;;;;;29.60;20.00;;;;;;;8.39;58.10;101497.27;107365;1290;21952;-63
2022/12/31 03:37:59;;;;;;;26.40;17.90;;;;;;;8.36;58.04;101498.82;107322;1288;21956;-61
2022/12/31 03:40:28;;;;;;;28.30;18.20;;;;;;;8.33;58.13;101503.85;107403;1291;21951;-62
2022/12/31 03:42:54;;;;;;;28.60;18.80;;;;;;;8.35;58.30;101508.08;107513;1290;21966;-60
2022/12/31 03:45:19;;;;;;;26.90;17.50;;;;;;;8.38;58.31;101512.84;107348;1290;21963;-61
2022/12/31 03:47:45;;;;;;;25.60;16.30;;;;;;;8.37;57.99;101517.72;107290;1291;21955;-62
2022/12/31 03:50:12;;;;;;;27.00;17.50;;;;;;;8.32;57.95;101515.89;107410;1290;21954;-62
2022/12/31 03:52:39;;;;;;;27.10;18.20;;;;;;;8.30;57.86;101516.91;107360;1291;21951;-60
2022/12/31 03:55:05;;;;;;;29.60;18.10;;;;;;;8.30;58.05;101517.95;107346;1288;22960;-62
2022/12/31 03:57:31;;;;;;;28.10;17.10;;;;;;;8.29;58.16;101522.33;107416;1290;21937;-62
2022/12/31 03:59:57;;;;;;;28.10;16.50;;;;;;;8.30;58.18;101524.95;107238;1290;21979;-62
2022/12/31 04:02:23;;;;;;;28.00;17.20;;;;;;;8.30;58.16;101520.41;107399;1290;21956;-60
2022/12/31 04:04:49;;;;;;;27.10;16.60;;;;;;;8.45;57.67;101519.06;107099;1288;21942;-61
2022/12/31 04:07:15;;;;;;;25.30;15.60;;;;;;;8.49;57.51;101517.40;107242;1288;21934;-61
2022/12/31 04:09:42;;;;;;;25.10;15.60;;;;;;;8.50;57.50;101519.86;107347;1290;21958;-62
2022/12/31 04:12:08;;;;;;;25.80;17.60;;;;;;;8.48;57.42;101524.89;107325;1290;21946;-60
2022/12/31 04:14:34;;;;;;;25.30;17.30;;;;;;;8.47;57.29;101527.30;107309;1290;21977;-61
2022/12/31 04:17:00;;;;;;;29.20;19.30;;;;;;;8.44;57.17;101528.13;107263;1290;21950;-60
2022/12/31 04:19:25;;;;;;;28.80;18.70;;;;;;;8.41;57.20;101528.61;107360;1290;22121;-60
2022/12/31 04:21:52;;;;;;;28.70;17.20;;;;;;;8.38;57.09;101528.73;107372;1286;21944;-62
2022/12/31 04:24:18;;;;;;;26.10;17.50;;;;;;;8.34;56.99;101532.37;107332;1291;21957;-60
2022/12/31 04:26:44;;;;;;;24.90;16.40;;;;;;;8.30;57.06;101535.80;107257;1290;21962;-61
2022/12/31 04:29:09;;;;;;;26.60;16.30;;;;;;;8.28;57.10;101542.94;107262;1288;21946;-60
2022/12/31 04:31:35;;;;;;;31.70;18.50;;;;;;;8.28;56.99;101542.41;107278;1290;21947;-61
2022/12/31 04:34:01;;;;;;;47.50;23.30;;;;;;;8.26;57.05;101541.32;107354;1290;21960;-63
2022/12/31 04:36:27;;;;;;;37.30;19.50;;;;;;;8.21;56.80;101544.92;107256;1293;21985;-60
2022/12/31 04:38:53;;;;;;;32.00;17.00;;;;;;;8.24;56.62;101545.67;106528;1290;1002466;-62
2022/12/31 04:41:25;;;;;;;30.10;17.00;;;;;;;8.25;56.11;101550.92;107267;1291;21948;-60
2022/12/31 04:43:53;;;;;;;25.90;15.90;;;;;;;8.15;55.87;101548.49;107307;1291;21957;-60
2022/12/31 04:46:23;;;;;;;26.80;17.30;;;;;;;8.07;55.86;101553.96;107287;1290;21949;-61
2022/12/31 04:48:52;;;;;;;25.00;16.40;;;;;;;8.02;55.94;101556.16;107277;1290;21956;-60
2022/12/31 04:51:19;;;;;;;25.00;15.70;;;;;;;7.99;55.90;101560.27;107292;1288;21995;-60
2022/12/31 04:53:45;;;;;;;23.00;16.00;;;;;;;7.96;55.94;101561.46;107318;1291;21951;-63
2022/12/31 04:56:10;;;;;;;27.60;15.80;;;;;;;7.93;55.87;101557.75;107357;1291;21959;-62
2022/12/31 04:58:37;;;;;;;26.10;16.90;;;;;;;7.89;56.09;101557.85;107253;1290;22008;-62
2022/12/31 05:01:03;;;;;;;21.50;14.90;;;;;;;7.85;55.86;101561.98;106527;1291;1003214;-60
2022/12/31 05:03:29;;;;;;;25.90;16.70;;;;;;;7.80;55.80;101563.81;107261;1290;21949;-60
2022/12/31 05:06:06;;;;;;;26.50;17.00;;;;;;;7.72;55.61;101566.27;107292;1290;21951;-62
2022/12/31 05:08:32;;;;;;;24.50;15.30;;;;;;;7.69;55.71;101565.90;107200;1293;21995;-62
2022/12/31 05:10:58;;;;;;;28.10;17.20;;;;;;;7.70;55.98;101568.35;107312;1291;22118;-62
2022/12/31 05:13:23;;;;;;;27.20;16.40;;;;;;;7.70;55.84;101573.93;107306;1290;21948;-61
2022/12/31 05:15:49;;;;;;;23.50;15.50;;;;;;;7.66;55.70;101580.67;107289;1291;21956;-59
2022/12/31 05:18:16;;;;;;;31.00;19.30;;;;;;;7.57;55.64;101587.48;107359;1286;21970;-62
2022/12/31 05:20:42;;;;;;;30.30;23.00;;;;;;;7.49;55.69;101592.91;107269;1290;21944;-60
2022/12/31 05:23:07;;;;;;;31.00;22.30;;;;;;;7.43;55.86;101591.23;106616;1290;1002291;-61
2022/12/31 05:25:34;;;;;;;30.50;18.70;;;;;;;7.44;55.93;101589.51;107275;1290;21977;-59
2022/12/31 05:28:00;;;;;;;29.10;19.00;;;;;;;7.47;55.89;101586.23;107265;1288;21954;-60
2022/12/31 05:30:25;;;;;;;26.60;17.30;;;;;;;7.48;55.89;101593.93;107272;1291;21999;-61
2022/12/31 05:32:52;;;;;;;29.00;17.90;;;;;;;7.50;56.32;101598.88;107355;1290;21959;-60
2022/12/31 05:35:18;;;;;;;25.80;17.10;;;;;;;7.56;56.59;101604.94;107260;1291;21995;-60
2022/12/31 05:37:43;;;;;;;25.00;16.10;;;;;;;7.64;56.91;101604.39;106483;1293;1002402;-62
2022/12/31 05:40:10;;;;;;;26.20;16.30;;;;;;;7.71;56.65;101603.48;107297;1286;21948;-61
2022/12/31 05:42:36;;;;;;;26.20;16.30;;;;;;;7.76;56.62;101603.39;107248;1293;22019;-62
2022/12/31 05:45:01;;;;;;;28.60;18.70;;;;;;;7.78;56.60;101610.59;107225;1290;21955;-62
2022/12/31 05:47:29;;;;;;;33.20;18.20;;;;;;;7.75;56.35;101615.62;107310;1288;21953;-60
2022/12/31 05:49:55;;;;;;;21.50;15.70;;;;;;;7.77;57.00;101617.20;107360;1290;21953;-63
2022/12/31 05:52:22;;;;;;;25.90;16.80;;;;;;;7.91;57.45;101622.56;107225;1290;21960;-63
2022/12/31 05:54:47;;;;;;;25.50;17.40;;;;;;;8.04;57.03;101623.65;107250;1290;21968;-63
2022/12/31 05:57:13;;;;;;;25.20;14.90;;;;;;;8.11;56.79;101630.79;107206;1290;21948;-64
2022/12/31 05:59:39;;;;;;;24.20;14.80;;;;;;;8.15;56.71;101635.39;107255;1293;22076;-61
2022/12/31 06:02:06;;;;;;;25.90;18.20;;;;;;;8.21;56.66;101638.98;107248;1282;21947;-64
2022/12/31 06:04:32;;;;;;;28.90;16.00;;;;;;;8.24;56.64;101640.44;107328;1290;21953;-61
2022/12/31 06:06:59;;;;;;;28.10;16.80;;;;;;;8.24;56.54;101640.45;107248;1291;21948;-61
2022/12/31 06:09:25;;;;;;;25.60;17.20;;;;;;;8.24;56.33;101644.80;107253;1289;21950;-64
2022/12/31 06:11:52;;;;;;;23.30;16.30;;;;;;;8.27;56.61;101642.59;107273;1291;21957;-62
2022/12/31 06:14:18;;;;;;;28.70;16.40;;;;;;;8.30;56.55;101640.73;107201;1290;22005;-63
2022/12/31 06:16:44;;;;;;;25.80;16.00;;;;;;;8.32;56.62;101637.97;107229;1290;21950;-61
2022/12/31 06:19:10;;;;;;;28.10;15.70;;;;;;;8.38;56.70;101645.92;107252;1287;21943;-63
2022/12/31 06:21:36;;;;;;;27.70;15.00;;;;;;;8.44;56.63;101651.98;107349;1289;21961;-63
2022/12/31 06:24:02;;;;;;;28.30;16.90;;;;;;;8.50;56.75;101653.34;107174;1288;22042;-61
2022/12/31 06:26:28;;;;;;;27.90;17.00;;;;;;;8.56;56.80;101656.41;107195;1293;21942;-62
2022/12/31 06:28:54;;;;;;;32.00;17.40;;;;;;;8.61;56.79;101657.70;107159;1288;21960;-63
2022/12/31 06:31:20;;;;;;;32.40;18.80;;;;;;;8.69;57.22;101662.91;107186;1292;21948;-63
2022/12/31 06:33:46;;;;;;;31.20;18.70;;;;;;;8.77;57.12;101658.33;107248;1291;21944;-63
2022/12/31 06:36:13;;;;;;;28.90;19.40;;;;;;;8.84;56.95;101660.86;107214;1285;21954;-64
2022/12/31 06:38:40;;;;;;;30.10;18.40;;;;;;;8.89;56.93;101663.92;107281;1290;22006;-62
2022/12/31 06:41:09;;;;;;;29.20;18.20;;;;;;;8.91;57.09;101667.29;107277;1290;22063;-62
2022/12/31 06:43:35;;;;;;;31.70;18.60;;;;;;;8.95;57.24;101666.11;107123;1293;21951;-65
2022/12/31 06:46:02;;;;;;;31.80;18.90;;;;;;;9.03;57.46;101667.29;107358;1288;21952;-62
2022/12/31 06:48:28;;;;;;;30.30;18.20;;;;;;;9.11;57.71;101666.70;107495;1290;21954;-63
2022/12/31 06:50:54;;;;;;;34.40;18.40;;;;;;;9.17;57.97;101665.38;107342;1288;21956;-62
2022/12/31 06:53:21;;;;;;;27.30;17.70;;;;;;;9.27;58.05;101666.58;107178;1285;21948;-63
2022/12/31 06:55:48;;;;;;;28.20;17.80;;;;;;;9.37;58.03;101666.00;107251;1291;21948;-62
2022/12/31 06:58:15;;;;;;;27.70;16.00;;;;;;;9.45;58.16;101669.61;107289;1290;21951;-64
2022/12/31 07:00:49;;;;;;;26.40;16.70;;;;;;;9.58;58.58;101673.27;107268;1290;21948;-62
2022/12/31 07:03:44;;;;;;;28.80;19.10;;;;;;;9.72;58.90;101671.00;107130;1293;22319;-62
2022/12/31 07:06:24;;;;;;;32.20;18.80;;;;;;;9.89;59.20;101665.95;107330;1293;21944;-65
2022/12/31 07:08:58;;;;;;;28.10;17.80;;;;;;;10.05;59.22;101668.74;107264;1291;21944;-63
2022/12/31 07:11:30;;;;;;;28.30;17.60;;;;;;;10.14;58.97;101675.14;105739;1290;1002358;-63
2022/12/31 07:14:14;;;;;;;31.40;19.00;;;;;;;10.18;58.41;101678.16;107261;1288;21960;-59
2022/12/31 07:16:54;;;;;;;25.60;16.90;;;;;;;10.23;58.32;101673.48;107327;1285;21996;-65
2022/12/31 07:19:32;;;;;;;27.40;18.20;;;;;;;10.31;58.70;101680.76;107480;1291;21961;-65
2022/12/31 07:21:58;;;;;;;26.90;17.70;;;;;;;10.44;58.96;101682.30;107199;1288;23613;-65
2022/12/31 07:24:24;;;;;;;26.30;18.30;;;;;;;10.57;58.97;101684.53;107243;1291;21964;-64
2022/12/31 07:27:20;;;;;;;27.80;18.80;;;;;;;10.66;58.89;101686.52;107401;1293;21947;-64
2022/12/31 07:30:10;;;;;;;30.20;19.00;;;;;;;10.72;58.65;101683.23;107238;1292;21973;-65
2022/12/31 07:32:47;;;;;;;27.20;19.00;;;;;;;10.82;58.77;101685.42;107226;1291;21950;-62
2022/12/31 07:35:24;;;;;;;27.80;17.90;;;;;;;10.94;59.51;101685.70;107205;1287;21953;-62
2022/12/31 07:38:15;;;;;;;25.30;17.30;;;;;;;11.14;60.04;101691.45;107100;1290;21947;-62
2022/12/31 07:40:51;;;;;;;27.70;17.90;;;;;;;11.34;60.68;101698.08;107236;1293;23135;-61
2022/12/31 07:43:40;;;;;;;29.50;18.30;;;;;;;11.62;60.86;101702.43;107239;1290;21953;-61
2022/12/31 07:46:08;;;;;;;26.00;16.90;;;;;;;11.84;60.95;101711.31;107195;1291;21953;-62
2022/12/31 07:48:34;;;;;;;28.40;18.90;;;;;;;11.96;60.83;101714.34;107184;1290;21955;-62
2022/12/31 07:51:00;;;;;;;30.60;21.20;;;;;;;12.06;60.80;101717.40;107149;1290;21965;-62
2022/12/31 07:53:27;;;;;;;28.70;20.10;;;;;;;12.22;61.11;101720.42;107992;1288;21932;-66
2022/12/31 07:56:03;;;;;;;31.50;19.90;;;;;;;12.45;61.76;101714.30;107316;1291;23599;-66
2022/12/31 07:58:57;;;;;;;28.60;18.10;;;;;;;12.72;62.39;101712.73;107740;1286;23634;-66
2022/12/31 08:01:51;;;;;;;26.30;18.10;;;;;;;13.03;62.41;101705.67;107168;1290;21994;-67
2022/12/31 08:04:23;;;;;;;27.40;18.40;;;;;;;13.31;62.43;101696.29;107181;1291;21945;-66
2022/12/31 08:07:10;;;;;;;26.60;17.10;;;;;;;13.53;62.26;101687.78;107232;1291;21948;-66
2022/12/31 08:09:39;;;;;;;26.60;18.00;;;;;;;13.71;61.96;101683.30;107409;1291;21960;-66
2022/12/31 08:12:06;;;;;;;30.00;19.40;;;;;;;13.78;61.84;101680.63;107326;1288;21949;-66
2022/12/31 08:14:32;;;;;;;27.00;17.10;;;;;;;13.88;61.58;101684.65;107258;1293;21952;-66
2022/12/31 08:16:59;;;;;;;21.50;16.00;;;;;;;13.94;61.31;101685.48;106921;1293;21947;-65
2022/12/31 08:19:27;;;;;;;24.50;16.70;;;;;;;14.02;60.78;101685.80;107166;1290;21967;-66
2022/12/31 08:22:11;;;;;;;28.80;18.20;;;;;;;14.17;60.24;101688.17;107344;1290;23695;-61
2022/12/31 08:25:05;;;;;;;26.70;18.40;;;;;;;14.25;59.97;101692.71;107331;1291;23625;-62
2022/12/31 08:27:44;;;;;;;25.80;18.40;;;;;;;14.32;60.25;101693.73;107189;1293;21956;-62
2022/12/31 08:30:15;;;;;;;34.10;22.90;;;;;;;14.41;60.57;101691.17;107195;1292;22410;-62
2022/12/31 08:32:54;;;;;;;27.30;19.10;;;;;;;14.48;60.12;101684.96;107262;1290;21954;-62
2022/12/31 08:35:37;;;;;;;319.70;238.00;;;;;;;14.53;60.11;101681.39;107256;1290;21998;-62
2022/12/31 08:38:33;;;;;;;180.90;134.60;;;;;;;14.67;60.41;101683.77;107276;1293;21950;-62
2022/12/31 08:41:15;;;;;;;59.60;44.40;;;;;;;14.88;60.56;101679.71;107344;1290;21947;-67
2022/12/31 08:44:14;;;;;;;26.90;20.00;;;;;;;15.04;59.97;101676.36;107257;1291;21961;-67
2022/12/31 08:46:57;;;;;;;23.10;15.40;;;;;;;15.23;60.07;101673.34;107366;1290;21957;-67
2022/12/31 08:49:26;;;;;;;24.20;15.60;;;;;;;15.42;60.42;101672.23;107251;1290;22015;-66
2022/12/31 08:51:53;;;;;;;22.20;15.70;;;;;;;15.60;60.08;101665.48;107287;1291;21965;-67
2022/12/31 08:54:19;;;;;;;24.20;16.20;;;;;;;15.75;59.84;101664.05;107283;1290;21951;-67
2022/12/31 08:56:52;;;;;;;22.80;15.30;;;;;;;15.92;60.17;101661.89;107321;1290;21952;-62
2022/12/31 08:59:18;;;;;;;20.50;14.80;;;;;;;16.01;60.36;101653.11;107090;1292;21976;-61
2022/12/31 09:01:53;;;;;;;23.80;15.50;;;;;;;16.19;60.46;101646.64;107231;1277;22014;-61
2022/12/31 09:04:52;;;;;;;22.40;15.30;;;;;;;16.39;60.00;101645.60;107245;1290;21956;-61
2022/12/31 09:07:21;;;;;;;19.10;13.50;;;;;;;16.52;59.73;101648.77;107358;1290;21944;-61
2022/12/31 09:09:55;;;;;;;21.80;14.70;;;;;;;16.53;59.19;101648.76;107402;1290;23062;-60
2022/12/31 09:12:43;;;;;;;21.80;14.90;;;;;;;16.60;58.71;101646.67;107204;1290;21953;-66
2022/12/31 09:15:35;;;;;;;17.50;11.70;;;;;;;16.71;58.89;101650.20;107254;1288;22122;-66
2022/12/31 09:18:01;;;;;;;14.00;9.30;;;;;;;16.82;58.64;101651.79;107271;1282;21949;-66
2022/12/31 09:20:31;;;;;;;15.40;10.00;;;;;;;16.88;58.29;101649.55;107194;1290;21948;-66
2022/12/31 09:22:58;;;;;;;13.50;9.80;;;;;;;16.90;58.14;101651.47;107236;1291;22416;-66
2022/12/31 09:25:24;;;;;;;12.80;9.20;;;;;;;16.91;57.33;101648.08;107246;1290;21966;-66
2022/12/31 09:28:06;;;;;;;16.40;9.30;;;;;;;16.93;57.63;101643.96;107211;1291;21952;-61
2022/12/31 09:30:38;;;;;;;14.00;10.10;;;;;;;16.97;57.41;101638.08;107152;1293;21954;-66
2022/12/31 09:33:09;;;;;;;17.80;12.10;;;;;;;17.03;58.00;101633.16;107256;1293;23124;-66
2022/12/31 09:35:47;;;;;;;16.40;11.80;;;;;;;17.10;57.89;101629.31;107245;1291;21956;-66
2022/12/31 09:38:32;;;;;;;15.20;11.30;;;;;;;17.17;57.23;101621.89;107329;1288;21964;-66
2022/12/31 09:41:14;;;;;;;16.80;13.00;;;;;;;17.25;56.79;101619.44;107219;1290;21955;-66
2022/12/31 09:44:28;;;;;;;19.00;13.70;;;;;;;17.28;55.77;101623.65;107246;1289;22083;-61
2022/12/31 09:47:15;;;;;;;21.20;15.00;;;;;;;17.36;56.95;101618.51;107171;1290;21951;-61
2022/12/31 09:49:50;;;;;;;25.30;17.30;;;;;;;17.47;56.78;101615.27;107220;1293;22203;-61
2022/12/31 09:52:35;;;;;;;31.30;17.90;;;;;;;17.51;56.26;101617.65;107225;1291;21945;-62
2022/12/31 09:55:29;;;;;;;36.00;20.70;;;;;;;17.51;56.26;101615.70;107243;1293;21951;-67
2022/12/31 09:58:24;;;;;;;17.10;12.60;;;;;;;17.49;57.19;101607.04;107180;1290;21950;-66
2022/12/31 10:00:52;;;;;;;21.20;12.80;;;;;;;17.61;56.89;101603.08;107120;1289;22024;-66
2022/12/31 10:03:46;;;;;;;22.60;13.20;;;;;;;17.71;56.96;101597.88;107261;1293;22969;-66
2022/12/31 10:06:46;;;;;;;60.40;33.10;;;;;;;17.75;56.32;101592.99;107231;1289;21949;-61
2022/12/31 10:09:30;;;;;;;67.30;39.00;;;;;;;17.83;56.48;101587.85;107063;1290;21947;-61
2022/12/31 10:12:10;;;;;;;83.60;46.10;;;;;;;17.97;56.00;101586.81;107402;1290;22705;-62
2022/12/31 10:15:02;;;;;;;25.90;13.50;;;;;;;18.20;54.94;101585.04;107224;1290;22184;-62
2022/12/31 10:17:59;;;;;;;16.10;11.20;;;;;;;18.20;51.78;101584.48;107351;1293;21970;-60
2022/12/31 10:20:40;;;;;;;14.30;10.30;;;;;;;18.06;51.86;101589.45;107147;1293;22450;-61
2022/12/31 10:23:19;;;;;;;19.50;12.70;;;;;;;17.97;51.74;101592.83;107163;1291;21972;-61
2022/12/31 10:26:03;;;;;;;17.40;13.60;;;;;;;17.95;52.63;101591.09;106962;1291;294871;-61
2022/12/31 10:28:48;;;;;;;18.00;13.30;;;;;;;18.07;53.45;101588.18;107099;1293;21978;-67
2022/12/31 10:31:28;;;;;;;26.80;17.20;;;;;;;18.19;52.98;101583.30;107062;1293;22020;-67
2022/12/31 10:34:35;;;;;;;23.00;17.20;;;;;;;18.11;50.49;101586.30;107247;1291;21953;-67
2022/12/31 10:37:16;;;;;;;20.40;15.50;;;;;;;18.09;50.96;101585.30;107032;1293;21945;-67
2022/12/31 10:40:06;;;;;;;22.40;15.30;;;;;;;17.95;50.83;101586.86;107090;1293;21955;-61
2022/12/31 10:42:38;;;;;;;20.00;14.30;;;;;;;17.91;50.33;101586.25;107215;1293;21960;-61
2022/12/31 10:45:10;;;;;;;26.40;18.90;;;;;;;17.86;50.30;101584.23;107166;1291;22003;-61
2022/12/31 10:47:40;;;;;;;23.60;16.60;;;;;;;17.83;50.06;101581.63;107175;1290;21969;-61
2022/12/31 10:50:32;;;;;;;22.50;16.60;;;;;;;17.95;50.84;101578.15;107253;1291;21977;-61
2022/12/31 10:53:10;;;;;;;33.70;23.80;;;;;;;17.93;49.51;101578.21;107083;1293;21955;-61
2022/12/31 10:55:59;;;;;;;59.90;27.00;;;;;;;17.95;50.43;101575.50;107260;1291;21952;-61
2022/12/31 10:58:47;;;;;;;104.90;38.40;;;;;;;18.11;51.15;101575.30;107121;1293;21968;-61
2022/12/31 11:01:25;;;;;;;22.70;16.10;;;;;;;18.16;50.29;101572.16;107187;1291;21946;-62
2022/12/31 11:04:29;;;;;;;42.30;21.00;;;;;;;18.16;50.11;101578.00;107315;1290;21958;-67
2022/12/31 11:07:07;;;;;;;30.10;16.70;;;;;;;18.25;51.00;101574.97;107161;1291;21949;-67
2022/12/31 11:10:08;;;;;;;18.90;14.00;;;;;;;18.14;49.19;101575.05;107301;1290;21922;-67
2022/12/31 11:12:45;;;;;;;18.70;13.00;;;;;;;18.15;49.95;101570.41;107493;1290;21959;-61
2022/12/31 11:15:20;;;;;;;22.30;14.10;;;;;;;18.22;50.30;101565.80;107166;1291;21965;-61
2022/12/31 11:18:04;;;;;;;16.60;13.00;;;;;;;18.17;49.45;101564.14;107309;1293;21974;-61
2022/12/31 11:21:06;;;;;;;19.80;13.70;;;;;;;18.19;49.89;101556.28;107302;1293;21958;-61
2022/12/31 11:23:42;;;;;;;20.60;15.10;;;;;;;18.24;49.18;101552.27;106729;1291;22017;-61
2022/12/31 11:26:13;;;;;;;18.20;13.20;;;;;;;18.23;48.66;101556.17;107153;1290;21951;-61
2022/12/31 11:28:42;;;;;;;20.20;14.30;;;;;;;18.20;47.67;101558.56;107195;1291;21953;-61
2022/12/31 11:31:17;;;;;;;18.50;14.70;;;;;;;18.18;48.15;101554.15;107289;1291;23736;-61
2022/12/31 11:34:01;;;;;;;22.50;16.40;;;;;;;18.07;47.60;101549.98;107315;1291;21965;-62
2022/12/31 11:36:32;;;;;;;19.10;14.40;;;;;;;18.13;48.97;101548.79;107158;1293;21953;-61